Time;durP1;ratioP1;P1;durP2;ratioP2;P2;SDS_P1;SDS_P2;PMS_P1;PMS_P2;Temp;Humidity;BMP_temperature;BMP_pressure;BME280_temperature;BME280_humidity;BME280_pressure;Samples;Min_cycle;Max_cycle;Signal;HPM_P1;HPM_P2
2023/10/02 00:04:24;;;;;;;;;;;;;;;12.47;100.00;96479.53;10530690;28;1835;-78
2023/10/02 00:09:27;;;;;;;;;;;;;;;12.40;100.00;96477.91;10523860;28;2470;-77
2023/10/02 00:14:37;;;;;;;;;;;;;;;12.35;100.00;96477.13;10515982;28;1835;-77
2023/10/02 00:19:40;;;;;;;;;;;;;;;12.30;100.00;96472.53;10515918;28;2143;-76
2023/10/02 00:24:46;;;;;;;;;;;;;;;12.25;100.00;96460.91;10524798;28;1942;-76
2023/10/02 00:29:52;;;;;;;;;;;;;;;12.20;100.00;96463.59;10521390;28;1875;-77
2023/10/02 00:34:54;;;;;;;;;;;;;;;12.20;100.00;96469.00;10517161;28;1952;-77
2023/10/02 00:39:57;;;;;;;;;;;;;;;12.19;100.00;96468.19;10519027;28;2092;-77
2023/10/02 00:45:01;;;;;;;;;;;;;;;12.21;100.00;96462.50;10520864;28;5032;-77
2023/10/02 00:50:08;;;;;;;;;;;;;;;12.16;100.00;96471.41;10518777;28;1905;-77
2023/10/02 00:55:10;;;;;;;;;;;;;;;12.18;100.00;96466.56;10519863;28;2588;-77
2023/10/02 01:00:20;;;;;;;;;;;;;;;12.17;100.00;96468.44;10523508;28;2049;-77
2023/10/02 01:05:30;;;;;;;;;;;;;;;12.06;100.00;96469.50;10518861;28;1986;-77
2023/10/02 01:10:32;;;;;;;;;;;;;;;11.97;100.00;96462.22;10520659;28;1956;-77
2023/10/02 01:15:37;;;;;;;;;;;;;;;11.88;100.00;96461.91;10521208;28;1952;-78
2023/10/02 01:20:53;;;;;;;;;;;;;;;11.89;100.00;96458.94;10519773;28;2027;-76
2023/10/02 01:25:58;;;;;;;;;;;;;;;11.84;100.00;96460.81;10512402;28;2047;-76
2023/10/02 01:31:31;;;;;;;;;;;;;;;11.77;100.00;96460.22;10514351;28;2319;-76
2023/10/02 01:36:28;;;;;;;;;;;;;;;11.70;100.00;96446.97;10519190;28;2050;-80
2023/10/02 01:41:32;;;;;;;;;;;;;;;11.65;100.00;96449.69;10521892;28;4820;-78
2023/10/02 01:46:36;;;;;;;;;;;;;;;11.67;100.00;96444.84;10521652;28;1925;-76
2023/10/02 01:51:41;;;;;;;;;;;;;;;11.59;100.00;96448.84;10517385;28;2019;-78
2023/10/02 01:56:45;;;;;;;;;;;;;;;11.57;100.00;96450.16;10521235;28;1984;-77
2023/10/02 02:01:51;;;;;;;;;;;;;;;11.53;100.00;96443.72;10532622;28;1964;-77
2023/10/02 02:06:56;;;;;;;;;;;;;;;11.48;100.00;96441.00;10520743;28;1969;-77
2023/10/02 02:12:09;;;;;;;;;;;;;;;11.48;100.00;96446.38;10522446;28;2001;-77
2023/10/02 02:17:12;;;;;;;;;;;;;;;11.47;100.00;96450.16;10525439;28;1957;-78
2023/10/02 02:22:16;;;;;;;;;;;;;;;11.45;100.00;96438.81;10521672;28;1948;-78
2023/10/02 02:27:19;;;;;;;;;;;;;;;11.55;100.00;96441.56;10530686;28;2611;-78
2023/10/02 02:32:36;;;;;;;;;;;;;;;11.57;100.00;96444.78;10530829;28;2307;-77
2023/10/02 02:37:41;;;;;;;;;;;;;;;11.64;100.00;96439.97;10526560;28;1913;-77
2023/10/02 02:42:45;;;;;;;;;;;;;;;11.76;100.00;96432.47;10529304;28;2032;-77
2023/10/02 02:47:53;;;;;;;;;;;;;;;11.72;100.00;96431.41;10527535;28;1987;-77
2023/10/02 02:58:12;;;;;;;;;;;;;;;11.59;100.00;96440.78;10524992;28;2081;-77
2023/10/02 03:08:38;;;;;;;;;;;;;;;11.59;100.00;96432.69;10530125;28;1981;-77
2023/10/02 03:13:40;;;;;;;;;;;;;;;11.59;100.00;96431.88;10526730;28;1929;-78
2023/10/02 03:18:44;;;;;;;;;;;;;;;11.60;100.00;96428.13;10529822;28;2272;-78
2023/10/02 03:23:46;;;;;;;;;;;;;;;11.57;100.00;96437.50;10526552;28;1905;-78
2023/10/02 03:29:00;;;;;;;;;;;;;;;11.46;100.00;96435.88;10526898;28;2444;-77
2023/10/02 03:34:24;;;;;;;;;;;;;;;11.50;100.00;96431.56;10522915;28;2332;-77
2023/10/02 03:39:51;;;;;;;;;;;;;;;11.36;100.00;96439.31;10521247;28;2287;-77
2023/10/02 03:44:49;;;;;;;;;;;;;;;11.26;100.00;96433.06;10533402;28;4814;-79
2023/10/02 03:49:51;;;;;;;;;;;;;;;11.12;100.00;96427.34;10532014;28;1977;-77
2023/10/02 03:54:55;;;;;;;;;;;;;;;11.02;100.00;96427.31;10529164;28;2173;-76
2023/10/02 03:59:57;;;;;;;;;;;;;;;10.93;100.00;96418.91;10525996;28;1948;-78
2023/10/02 04:05:00;;;;;;;;;;;;;;;10.89;100.00;96411.63;10525627;28;1977;-77
2023/10/02 04:10:06;;;;;;;;;;;;;;;10.84;100.00;96407.00;10524408;28;1996;-77
2023/10/02 04:15:11;;;;;;;;;;;;;;;10.82;100.00;96411.84;10523963;28;2372;-77
2023/10/02 04:20:27;;;;;;;;;;;;;;;10.79;100.00;96415.84;10523571;28;1983;-76
2023/10/02 04:25:35;;;;;;;;;;;;;;;10.78;100.00;96422.31;10521755;28;2070;-76
2023/10/02 04:30:38;;;;;;;;;;;;;;;10.74;100.00;96420.38;10523532;28;2084;-76
2023/10/02 04:35:57;;;;;;;;;;;;;;;10.65;100.00;96428.13;10523532;28;2032;-76
2023/10/02 04:41:03;;;;;;;;;;;;;;;10.64;100.00;96431.09;10527257;28;4766;-77
2023/10/02 04:46:08;;;;;;;;;;;;;;;10.59;100.00;96429.16;10524045;28;1913;-77
2023/10/02 04:51:12;;;;;;;;;;;;;;;10.60;100.00;96430.78;10523885;28;2014;-77
2023/10/02 04:56:21;;;;;;;;;;;;;;;10.57;100.00;96436.69;10519253;28;2347;-76
2023/10/02 05:01:28;;;;;;;;;;;;;;;10.58;100.00;96432.91;10522237;28;1878;-77
2023/10/02 05:06:44;;;;;;;;;;;;;;;10.55;100.00;96425.34;10518098;28;1915;-78
2023/10/02 05:11:50;;;;;;;;;;;;;;;10.57;100.00;96431.31;10518410;28;2139;-74
2023/10/02 05:16:53;;;;;;;;;;;;;;;10.55;100.00;96439.59;10522645;28;1968;-76
2023/10/02 05:21:57;;;;;;;;;;;;;;;10.55;100.00;96436.09;10514260;28;1925;-75
2023/10/02 05:26:59;;;;;;;;;;;;;;;10.57;100.00;96444.75;10516512;28;2082;-76
2023/10/02 05:32:16;;;;;;;;;;;;;;;10.66;100.00;96445.88;10514918;28;1945;-75
2023/10/02 05:37:23;;;;;;;;;;;;;;;10.76;100.00;96445.16;10520549;28;1897;-76
2023/10/02 05:42:25;;;;;;;;;;;;;;;10.81;100.00;96440.63;10519043;28;4721;-75
2023/10/02 05:47:29;;;;;;;;;;;;;;;10.95;100.00;96456.31;10513491;28;1981;-75
2023/10/02 05:52:35;;;;;;;;;;;;;;;11.11;100.00;96447.25;10516381;28;2035;-76
2023/10/02 05:57:42;;;;;;;;;;;;;;;11.24;100.00;96452.16;10516857;28;1972;-75
2023/10/02 06:02:57;;;;;;;;;;;;;;;11.39;100.00;96459.53;10518782;28;2043;-76
2023/10/02 06:08:07;;;;;;;;;;;;;;;11.57;100.00;96455.56;10518184;28;2208;-74
2023/10/02 06:13:09;;;;;;;;;;;;;;;11.82;100.00;96458.38;10517618;28;1940;-75
2023/10/02 06:18:24;;;;;;;;;;;;;;;12.08;100.00;96461.94;10511028;28;2023;-75
2023/10/02 06:23:29;;;;;;;;;;;;;;;12.38;100.00;96461.19;10521770;28;1968;-75
2023/10/02 06:28:35;;;;;;;;;;;;;;;12.62;100.00;96466.09;10518734;28;2399;-77
2023/10/02 06:33:37;;;;;;;;;;;;;;;12.89;100.00;96473.91;10516101;28;1945;-74
2023/10/02 06:38:40;;;;;;;;;;;;;;;13.13;100.00;96466.03;10516814;28;2008;-75
2023/10/02 06:43:43;;;;;;;;;;;;;;;13.19;100.00;96464.97;10516031;28;2087;-74
2023/10/02 06:48:46;;;;;;;;;;;;;;;13.34;100.00;96462.25;10523925;28;1944;-75
2023/10/02 06:53:49;;;;;;;;;;;;;;;13.51;100.00;96451.94;10524375;28;2043;-75
2023/10/02 06:58:54;;;;;;;;;;;;;;;13.72;100.00;96454.56;10528611;28;1961;-77
2023/10/02 07:04:08;;;;;;;;;;;;;;;13.87;100.00;96459.91;10526403;28;1941;-75
2023/10/02 07:09:12;;;;;;;;;;;;;;;14.09;100.00;96461.41;10529463;28;1984;-76
2023/10/02 07:14:15;;;;;;;;;;;;;;;14.29;100.00;96462.09;10525907;28;2543;-76
2023/10/02 07:19:38;;;;;;;;;;;;;;;14.45;100.00;96465.50;10524068;28;2011;-76
2023/10/02 07:24:40;;;;;;;;;;;;;;;14.62;100.00;96458.91;10531503;28;1937;-77
2023/10/02 07:29:43;;;;;;;;;;;;;;;14.88;100.00;96454.91;10530668;28;1954;-77
2023/10/02 07:34:46;;;;;;;;;;;;;;;15.25;100.00;96456.19;10523294;28;1956;-77
2023/10/02 07:39:49;;;;;;;;;;;;;;;15.56;100.00;96452.06;10526498;28;1922;-76
2023/10/02 07:44:52;;;;;;;;;;;;;;;15.80;100.00;96457.50;10528752;28;4717;-75
2023/10/02 07:49:59;;;;;;;;;;;;;;;16.00;100.00;96453.72;10526262;28;1991;-76
2023/10/02 07:55:01;;;;;;;;;;;;;;;16.28;100.00;96451.16;10525553;28;2020;-76
2023/10/02 08:00:05;;;;;;;;;;;;;;;16.47;100.00;96455.50;10525828;28;2487;-77
2023/10/02 08:05:09;;;;;;;;;;;;;;;16.62;100.00;96456.38;10523174;28;1980;-75
2023/10/02 08:10:11;;;;;;;;;;;;;;;16.68;100.00;96452.47;10526622;28;1925;-77
2023/10/02 08:15:26;;;;;;;;;;;;;;;16.74;100.00;96454.84;10526551;28;1905;-77
2023/10/02 08:20:36;;;;;;;;;;;;;;;16.92;100.00;96450.50;10525672;28;1823;-77
2023/10/02 08:25:40;;;;;;;;;;;;;;;16.98;100.00;96451.19;10525692;28;1899;-76
2023/10/02 08:30:42;;;;;;;;;;;;;;;17.09;100.00;96460.78;10527611;28;1930;-76
2023/10/02 08:35:46;;;;;;;;;;;;;;;17.34;100.00;96451.38;10525005;28;1796;-76
2023/10/02 08:40:57;;;;;;;;;;;;;;;17.53;100.00;96454.00;10523520;28;4707;-79
2023/10/02 08:45:59;;;;;;;;;;;;;;;17.80;100.00;96454.03;10524392;28;2527;-75
2023/10/02 08:51:04;;;;;;;;;;;;;;;17.95;100.00;96443.97;10523356;28;1985;-76
2023/10/02 08:56:21;;;;;;;;;;;;;;;18.03;100.00;96443.25;10525028;28;1881;-76
2023/10/02 09:01:27;;;;;;;;;;;;;;;17.98;100.00;96444.16;10523257;28;2133;-76
2023/10/02 09:06:32;;;;;;;;;;;;;;;18.26;100.00;96442.19;10519358;28;1878;-76
2023/10/02 09:11:35;;;;;;;;;;;;;;;18.51;100.00;96439.97;10523154;28;1977;-76
2023/10/02 09:16:37;;;;;;;;;;;;;;;18.74;100.00;96427.22;10521790;28;1870;-76
2023/10/02 09:21:40;;;;;;;;;;;;;;;18.88;100.00;96431.47;10515686;28;2010;-76
2023/10/02 09:26:43;;;;;;;;;;;;;;;19.16;100.00;96423.97;10523167;28;1814;-76
2023/10/02 09:31:47;;;;;;;;;;;;;;;19.28;100.00;96423.41;10520930;28;2522;-75
2023/10/02 09:36:52;;;;;;;;;;;;;;;19.54;100.00;96417.25;10521479;28;1878;-76
2023/10/02 09:42:15;;;;;;;;;;;;;;;19.66;100.00;96421.00;10515094;28;1879;-76
2023/10/02 09:47:20;;;;;;;;;;;;;;;19.77;100.00;96413.31;10519726;28;1971;-78
2023/10/02 09:52:23;;;;;;;;;;;;;;;19.94;100.00;96409.84;10521211;28;1815;-76
2023/10/02 09:57:29;;;;;;;;;;;;;;;20.08;100.00;96405.03;10520504;28;1831;-76
2023/10/02 10:02:50;;;;;;;;;;;;;;;20.36;100.00;96400.09;10524012;28;1870;-77
2023/10/02 10:07:59;;;;;;;;;;;;;;;20.68;100.00;96406.25;10522322;28;1918;-75
2023/10/02 10:13:12;;;;;;;;;;;;;;;20.80;100.00;96403.63;10520580;28;1874;-76
2023/10/02 10:18:17;;;;;;;;;;;;;;;20.81;100.00;96399.78;10522398;28;2391;-77
2023/10/02 10:23:20;;;;;;;;;;;;;;;20.85;100.00;96397.19;10528367;28;1889;-75
2023/10/02 10:28:24;;;;;;;;;;;;;;;20.69;100.00;96392.25;10527546;28;1938;-76
2023/10/02 10:33:27;;;;;;;;;;;;;;;20.73;100.00;96389.66;10526095;28;1902;-76
2023/10/02 10:38:36;;;;;;;;;;;;;;;20.91;100.00;96391.22;10527019;28;1902;-75
2023/10/02 10:43:55;;;;;;;;;;;;;;;21.10;100.00;96384.59;10526481;28;4727;-77
2023/10/02 10:49:07;;;;;;;;;;;;;;;21.09;100.00;96378.34;10524569;28;2176;-76
2023/10/02 10:54:25;;;;;;;;;;;;;;;21.03;100.00;96374.97;10523237;28;1905;-77
2023/10/02 10:59:46;;;;;;;;;;;;;;;21.33;100.00;96372.34;10527360;28;2452;-76
2023/10/02 11:04:48;;;;;;;;;;;;;;;21.33;100.00;96363.34;10523438;28;1878;-76
2023/10/02 11:10:14;;;;;;;;;;;;;;;21.46;100.00;96354.91;10519925;28;2012;-76
2023/10/02 11:15:28;;;;;;;;;;;;;;;21.44;100.00;96356.34;10531293;28;2046;-76
2023/10/02 11:20:30;;;;;;;;;;;;;;;21.47;100.00;96344.75;10525460;28;1983;-76
2023/10/02 11:25:34;;;;;;;;;;;;;;;21.58;100.00;96335.84;10524134;28;1941;-76
2023/10/02 11:30:36;;;;;;;;;;;;;;;21.71;100.00;96328.53;10529726;28;1975;-76
2023/10/02 11:35:41;;;;;;;;;;;;;;;21.67;100.00;96318.59;10527278;28;1890;-78
2023/10/02 11:40:44;;;;;;;;;;;;;;;21.90;100.00;96319.88;10527150;28;1910;-77
2023/10/02 11:45:47;;;;;;;;;;;;;;;21.89;100.00;96318.28;10524924;28;2321;-76
2023/10/02 11:50:51;;;;;;;;;;;;;;;21.91;100.00;96309.72;10526168;28;1974;-76
2023/10/02 11:55:53;;;;;;;;;;;;;;;22.04;100.00;96303.19;10525759;28;1835;-77
2023/10/02 12:00:56;;;;;;;;;;;;;;;22.17;100.00;96287.66;10515839;28;1937;-75
2023/10/02 12:05:59;;;;;;;;;;;;;;;22.34;100.00;96282.81;10520324;28;1892;-76
2023/10/02 12:11:02;;;;;;;;;;;;;;;22.37;100.00;96279.41;10519159;28;1984;-76
2023/10/02 12:16:05;;;;;;;;;;;;;;;22.43;100.00;96277.25;10526159;28;1925;-75
2023/10/02 12:21:08;;;;;;;;;;;;;;;22.46;100.00;96270.28;10522343;28;1867;-77
2023/10/02 12:26:10;;;;;;;;;;;;;;;22.53;100.00;96260.41;10518235;28;1914;-77
2023/10/02 12:31:13;;;;;;;;;;;;;;;22.73;100.00;96263.41;10520768;28;2662;-78
2023/10/02 12:36:17;;;;;;;;;;;;;;;22.77;100.00;96256.09;10519640;28;2042;-78
2023/10/02 12:41:19;;;;;;;;;;;;;;;22.71;100.00;96251.97;10524113;28;1890;-78
2023/10/02 12:46:22;;;;;;;;;;;;;;;22.83;100.00;96238.28;10516805;28;1835;-78
2023/10/02 12:51:25;;;;;;;;;;;;;;;23.03;100.00;96240.19;10514439;28;2114;-79
2023/10/02 12:56:27;;;;;;;;;;;;;;;22.86;100.00;96229.41;10524188;28;1909;-78
2023/10/02 13:01:30;;;;;;;;;;;;;;;22.87;100.00;96225.53;10520586;28;1886;-76
2023/10/02 13:06:33;;;;;;;;;;;;;;;22.78;100.00;96222.09;10522129;28;2089;-78
2023/10/02 13:11:39;;;;;;;;;;;;;;;22.83;100.00;96219.09;10522076;28;1910;-76
2023/10/02 13:16:42;;;;;;;;;;;;;;;22.86;100.00;96215.69;10520009;28;2371;-76
2023/10/02 13:21:45;;;;;;;;;;;;;;;22.79;100.00;96208.03;10513777;28;2083;-77
2023/10/02 13:26:47;;;;;;;;;;;;;;;22.78;100.00;96203.72;10519378;28;1906;-76
2023/10/02 13:31:51;;;;;;;;;;;;;;;22.87;100.00;96198.13;10520070;28;1980;-77
2023/10/02 13:36:54;;;;;;;;;;;;;;;22.89;100.00;96190.34;10514185;28;1906;-77
2023/10/02 13:41:57;;;;;;;;;;;;;;;22.88;100.00;96183.28;10514455;28;4654;-76
2023/10/02 13:47:00;;;;;;;;;;;;;;;23.03;99.97;96182.63;10518680;28;1878;-77
2023/10/02 13:52:03;;;;;;;;;;;;;;;23.10;100.00;96180.09;10518424;28;1918;-77
2023/10/02 13:57:06;;;;;;;;;;;;;;;23.18;99.62;96173.69;10518282;28;1953;-76
2023/10/02 14:02:10;;;;;;;;;;;;;;;23.30;97.35;96172.06;10524366;28;2438;-77
2023/10/02 14:07:17;;;;;;;;;;;;;;;23.26;95.16;96165.66;10522790;28;1859;-76
2023/10/02 14:12:20;;;;;;;;;;;;;;;23.23;95.77;96160.88;10520951;28;1984;-77
2023/10/02 14:17:23;;;;;;;;;;;;;;;23.31;95.53;96159.94;10517001;28;1949;-76
2023/10/02 14:22:26;;;;;;;;;;;;;;;23.24;94.35;96154.25;10517384;28;1851;-78
2023/10/02 14:27:28;;;;;;;;;;;;;;;23.17;95.49;96155.63;10517115;28;1882;-77
2023/10/02 14:32:32;;;;;;;;;;;;;;;23.09;97.67;96147.50;10520097;28;1989;-78
2023/10/02 14:37:35;;;;;;;;;;;;;;;23.30;99.57;96155.59;10519509;28;1961;-75
2023/10/02 14:42:37;;;;;;;;;;;;;;;23.27;98.64;96153.53;10517252;28;4685;-77
2023/10/02 14:47:42;;;;;;;;;;;;;;;23.13;99.00;96142.94;10516668;28;2356;-77
2023/10/02 14:52:47;;;;;;;;;;;;;;;23.05;99.96;96144.69;10523420;28;2134;-77
2023/10/02 14:57:50;;;;;;;;;;;;;;;23.20;100.00;96140.41;10522356;28;1958;-78
2023/10/02 15:02:54;;;;;;;;;;;;;;;23.27;100.00;96143.38;10524676;28;2000;-76
2023/10/02 15:07:56;;;;;;;;;;;;;;;23.19;100.00;96142.34;10528281;28;1862;-77
2023/10/02 15:12:59;;;;;;;;;;;;;;;23.14;100.00;96137.09;10526493;28;2120;-77
2023/10/02 15:18:04;;;;;;;;;;;;;;;23.09;100.00;96137.34;10525695;28;1906;-75
2023/10/02 15:23:07;;;;;;;;;;;;;;;23.07;100.00;96145.13;10516962;28;1900;-74
2023/10/02 15:28:09;;;;;;;;;;;;;;;23.05;100.00;96136.44;10521358;28;1934;-76
2023/10/02 15:33:15;;;;;;;;;;;;;;;22.87;100.00;96140.56;10511462;28;2664;-76
2023/10/02 15:38:20;;;;;;;;;;;;;;;22.78;100.00;96135.19;10511004;28;1740;-72
2023/10/02 15:43:25;;;;;;;;;;;;;;;22.78;100.00;96137.13;10514056;28;1910;-72
2023/10/02 15:48:27;;;;;;;;;;;;;;;22.64;100.00;96127.28;10518501;28;1874;-72
2023/10/02 15:53:30;;;;;;;;;;;;;;;22.58;100.00;96127.84;10522005;28;2017;-72
2023/10/02 15:58:32;;;;;;;;;;;;;;;22.37;100.00;96125.22;10522276;28;1811;-76
2023/10/02 16:03:35;;;;;;;;;;;;;;;22.28;100.00;96121.81;10525970;28;1965;-76
2023/10/02 16:08:37;;;;;;;;;;;;;;;22.14;100.00;96116.66;10520667;28;2271;-74
2023/10/02 16:13:40;;;;;;;;;;;;;;;22.05;100.00;96124.13;10520783;28;1918;-74
2023/10/02 16:18:43;;;;;;;;;;;;;;;21.70;100.00;96113.53;10514088;28;2038;-73
2023/10/02 16:23:46;;;;;;;;;;;;;;;21.56;100.00;96113.78;10521681;28;1942;-74
2023/10/02 16:28:51;;;;;;;;;;;;;;;21.36;100.00;96114.63;10521072;28;1866;-75
2023/10/02 16:33:54;;;;;;;;;;;;;;;21.09;100.00;96126.06;10517202;28;2772;-74
2023/10/02 16:38:56;;;;;;;;;;;;;;;20.89;100.00;96127.66;10517239;28;1863;-74
2023/10/02 16:44:04;;;;;;;;;;;;;;;20.73;100.00;96125.47;10517768;28;4754;-74
2023/10/02 16:49:08;;;;;;;;;;;;;;;20.49;100.00;96131.56;10516098;28;1983;-74
2023/10/02 16:54:11;;;;;;;;;;;;;;;20.28;100.00;96146.22;10524318;28;1906;-74
2023/10/02 16:59:13;;;;;;;;;;;;;;;20.00;100.00;96140.38;10522965;28;1883;-75
2023/10/02 17:04:16;;;;;;;;;;;;;;;19.77;100.00;96137.81;10519152;28;1886;-74
2023/10/02 17:09:18;;;;;;;;;;;;;;;19.81;100.00;96143.44;10521538;28;1972;-75
2023/10/02 17:14:21;;;;;;;;;;;;;;;19.84;100.00;96145.50;10525586;28;1890;-74
2023/10/02 17:19:24;;;;;;;;;;;;;;;19.45;100.00;96142.63;10511591;28;2932;-73
2023/10/02 17:24:27;;;;;;;;;;;;;;;19.14;100.00;96144.69;10518858;28;2156;-73
2023/10/02 17:29:29;;;;;;;;;;;;;;;18.91;100.00;96154.94;10519911;28;1922;-73
2023/10/02 17:34:32;;;;;;;;;;;;;;;18.73;100.00;96154.09;10518142;28;1858;-73
2023/10/02 17:39:38;;;;;;;;;;;;;;;18.56;100.00;96159.44;10513683;28;1879;-73
2023/10/02 17:44:41;;;;;;;;;;;;;;;18.45;100.00;96158.13;10514467;28;4810;-73
2023/10/02 17:49:43;;;;;;;;;;;;;;;18.27;100.00;96158.06;10522726;28;1939;-72
2023/10/02 17:54:47;;;;;;;;;;;;;;;18.14;100.00;96158.16;10514858;28;1902;-74
2023/10/02 17:59:49;;;;;;;;;;;;;;;17.98;100.00;96160.47;10518065;28;1886;-75
2023/10/02 18:04:53;;;;;;;;;;;;;;;17.89;100.00;96159.63;10520091;28;2970;-75
2023/10/02 18:09:55;;;;;;;;;;;;;;;17.78;100.00;96161.78;10518976;28;1910;-75
2023/10/02 18:14:58;;;;;;;;;;;;;;;17.70;100.00;96159.78;10524624;28;1894;-79
2023/10/02 18:20:01;;;;;;;;;;;;;;;17.65;100.00;96157.97;10511560;28;1893;-77
2023/10/02 18:25:06;;;;;;;;;;;;;;;17.52;100.00;96147.97;10516354;28;1835;-78
2023/10/02 18:30:09;;;;;;;;;;;;;;;17.46;100.00;96157.34;10522918;28;1906;-75
2023/10/02 18:35:12;;;;;;;;;;;;;;;17.31;100.00;96152.28;10521794;28;1514;-75
2023/10/02 18:40:15;;;;;;;;;;;;;;;17.22;100.00;96150.28;10522987;28;4698;-76
2023/10/02 18:45:17;;;;;;;;;;;;;;;17.15;100.00;96154.53;10532062;28;1502;-75
2023/10/02 18:50:20;;;;;;;;;;;;;;;17.05;100.00;96161.00;10532077;28;2995;-72
2023/10/02 18:55:22;;;;;;;;;;;;;;;17.01;100.00;96160.00;10531472;28;1662;-75
2023/10/02 19:00:25;;;;;;;;;;;;;;;16.92;100.00;96162.66;10534709;28;1729;-76
2023/10/02 19:05:30;;;;;;;;;;;;;;;16.88;100.00;96160.84;10534865;28;1868;-75
2023/10/02 19:10:32;;;;;;;;;;;;;;;16.87;100.00;96159.22;10532594;28;1973;-75
2023/10/02 19:15:35;;;;;;;;;;;;;;;16.82;100.00;96165.56;10531116;28;1509;-74
2023/10/02 19:20:37;;;;;;;;;;;;;;;16.69;100.00;96153.59;10557291;27;1642;-75
2023/10/02 19:25:40;;;;;;;;;;;;;;;16.58;100.00;96154.88;10534000;28;1697;-76
2023/10/02 19:30:48;;;;;;;;;;;;;;;16.46;100.00;96149.16;10526264;28;1914;-75
2023/10/02 19:35:50;;;;;;;;;;;;;;;16.42;100.00;96148.19;10525796;28;2975;-75
2023/10/02 19:40:53;;;;;;;;;;;;;;;16.41;100.00;96147.38;10530877;28;4721;-74
2023/10/02 19:45:56;;;;;;;;;;;;;;;16.30;100.00;96140.53;10530670;28;1530;-75
2023/10/02 19:50:58;;;;;;;;;;;;;;;16.24;100.00;96138.22;10529723;28;1902;-75
2023/10/02 19:56:01;;;;;;;;;;;;;;;16.07;100.00;96136.88;10526435;28;1766;-76
2023/10/02 20:01:03;;;;;;;;;;;;;;;16.00;100.00;96147.31;10520434;28;2105;-73
2023/10/02 20:06:06;;;;;;;;;;;;;;;15.90;100.00;96134.78;10521350;28;2109;-76
2023/10/02 20:11:10;;;;;;;;;;;;;;;15.81;100.00;96127.59;10525421;28;1918;-74
2023/10/02 20:16:13;;;;;;;;;;;;;;;15.72;100.00;96118.56;10518904;28;2001;-77
2023/10/02 20:21:16;;;;;;;;;;;;;;;15.61;100.00;96118.69;10515176;28;3037;-74
2023/10/02 20:26:19;;;;;;;;;;;;;;;15.54;100.00;96118.28;10523373;28;1906;-75
2023/10/02 20:31:22;;;;;;;;;;;;;;;15.46;100.00;96115.41;10524202;28;2056;-74
2023/10/02 20:36:24;;;;;;;;;;;;;;;15.40;100.00;96118.25;10520956;28;1973;-75
2023/10/02 20:41:26;;;;;;;;;;;;;;;15.33;100.00;96116.97;10520256;28;4852;-76
2023/10/02 20:46:29;;;;;;;;;;;;;;;15.30;100.00;96121.09;10520373;28;1851;-73
2023/10/02 20:51:32;;;;;;;;;;;;;;;15.46;100.00;96126.25;10519942;28;1913;-74
2023/10/02 20:56:38;;;;;;;;;;;;;;;15.34;100.00;96124.03;10523351;28;1938;-72
2023/10/02 21:01:41;;;;;;;;;;;;;;;15.26;100.00;96127.38;10521691;28;1867;-73
2023/10/02 21:06:45;;;;;;;;;;;;;;;15.29;100.00;96130.31;10515344;28;2988;-74
2023/10/02 21:11:47;;;;;;;;;;;;;;;15.23;100.00;96122.56;10516706;28;1926;-73
2023/10/02 21:16:50;;;;;;;;;;;;;;;15.29;100.00;96115.97;10522777;28;1871;-74
2023/10/02 21:21:52;;;;;;;;;;;;;;;15.13;100.00;96120.81;10516739;28;1946;-74
2023/10/02 21:26:55;;;;;;;;;;;;;;;15.04;100.00;96107.16;10518938;28;1867;-75
2023/10/02 21:31:58;;;;;;;;;;;;;;;15.12;100.00;96111.88;10522826;28;1910;-74
2023/10/02 21:37:00;;;;;;;;;;;;;;;15.11;100.00;96109.47;10515575;28;1878;-73
2023/10/02 21:42:03;;;;;;;;;;;;;;;15.03;100.00;96107.44;10516367;28;4728;-72
2023/10/02 21:47:05;;;;;;;;;;;;;;;14.93;100.00;96102.16;10518695;28;1910;-74
2023/10/02 21:52:09;;;;;;;;;;;;;;;14.95;100.00;96095.38;10515182;28;2906;-74
2023/10/02 21:57:12;;;;;;;;;;;;;;;14.83;100.00;96093.09;10515305;28;1937;-72
2023/10/02 22:02:14;;;;;;;;;;;;;;;14.84;100.00;96099.31;10516884;28;1842;-76
2023/10/02 22:07:17;;;;;;;;;;;;;;;14.83;100.00;96095.81;10512358;28;2006;-75
2023/10/02 22:12:22;;;;;;;;;;;;;;;14.80;100.00;96095.59;10517143;28;1910;-74
2023/10/02 22:17:25;;;;;;;;;;;;;;;14.75;100.00;96080.22;10520793;28;2101;-73
2023/10/02 22:22:32;;;;;;;;;;;;;;;14.82;100.00;96077.13;10518282;28;1942;-72
2023/10/02 22:27:35;;;;;;;;;;;;;;;14.83;100.00;96074.16;10527295;28;2029;-74
2023/10/02 22:32:37;;;;;;;;;;;;;;;14.73;100.00;96065.38;10522037;28;1925;-74
2023/10/02 22:37:41;;;;;;;;;;;;;;;14.75;100.00;96068.59;10523836;28;3074;-74
2023/10/02 22:42:43;;;;;;;;;;;;;;;14.73;100.00;96063.47;10530952;28;4682;-75
2023/10/02 22:47:46;;;;;;;;;;;;;;;14.50;100.00;96062.44;10527485;28;1890;-74
2023/10/02 22:52:50;;;;;;;;;;;;;;;14.50;100.00;96065.13;10525151;28;2004;-74
2023/10/02 22:57:56;;;;;;;;;;;;;;;14.31;100.00;96061.56;10525113;28;2145;-77
2023/10/02 23:03:06;;;;;;;;;;;;;;;14.26;100.00;96056.25;10525842;28;1890;-74
2023/10/02 23:08:10;;;;;;;;;;;;;;;14.14;100.00;96070.19;10530341;28;1914;-74
2023/10/02 23:13:16;;;;;;;;;;;;;;;14.11;100.00;96069.94;10526873;28;2008;-73
2023/10/02 23:18:19;;;;;;;;;;;;;;;14.05;100.00;96061.88;10527173;28;1887;-73
2023/10/02 23:23:22;;;;;;;;;;;;;;;13.92;100.00;96050.97;10527559;28;2947;-73
2023/10/02 23:28:25;;;;;;;;;;;;;;;13.79;100.00;96052.47;10523848;28;1890;-74
2023/10/02 23:33:28;;;;;;;;;;;;;;;13.71;100.00;96045.00;10523100;28;1918;-73
2023/10/02 23:38:31;;;;;;;;;;;;;;;13.54;100.00;96050.81;10522898;28;1943;-73
2023/10/02 23:43:34;;;;;;;;;;;;;;;13.45;100.00;96045.25;10527041;28;1887;-74
2023/10/02 23:48:39;;;;;;;;;;;;;;;13.37;100.00;96045.88;10527578;28;1881;-72
2023/10/02 23:53:41;;;;;;;;;;;;;;;13.35;100.00;96031.03;10524716;28;2046;-74
2023/10/02 23:58:44;;;;;;;;;;;;;;;13.34;100.00;96038.31;10525486;28;1918;-72
